33.0°F
Current conditions from King Hill
Updated every 5 minutes
 
  Wednesday November 26, 2014

Station Historical Data
Daily Summary for November 14, 2011 Units:  English    Metric   Both
« Previous Day
Next Day »
Daily Weekly Monthly Yearly Custom
  High: Low: Average:
Temperature: 62.2 °F 49.2 °F 54.9 °F
Dew Point: 50.9 °F 35.0 °F 41.8 °F
Humidity: 91% 49% 62%
Wind Speed: 15.0mph 2.0mph 8.1mph
Wind Gust: 28.0mph - -
Wind- - SSW
Pressure: 29.72 in 29.49 in -
Precipitation: 0.12 in    
Historical Graphs
 
 
Tabular Data for November 14, 2011
Time Temperature Dew Point Pressure Wind Wind Speed Wind Gust Humidity Daily Rainfall
00:04 51.8 °F 35.2 °F 29.72 in SSW 8.0 mph 21.0 mph 53% 0.00 in
00:09 51.6 °F 35.0 °F 29.72 in SSW 8.0 mph 18.0 mph 53% 0.00 in
00:14 51.6 °F 35.0 °F 29.72 in SSW 7.0 mph 20.0 mph 53% 0.00 in
00:19 51.7 °F 35.1 °F 29.72 in SSW 12.0 mph 20.0 mph 53% 0.00 in
00:24 51.8 °F 35.2 °F 29.72 in SSW 10.0 mph 20.0 mph 53% 0.00 in
00:29 51.8 °F 35.2 °F 29.72 in SSW 11.0 mph 20.0 mph 53% 0.00 in
00:34 51.9 °F 35.3 °F 29.72 in SSW 9.0 mph 24.0 mph 53% 0.00 in
00:39 51.9 °F 35.3 °F 29.71 in SSW 10.0 mph 24.0 mph 53% 0.00 in
00:44 52.0 °F 35.4 °F 29.71 in SSW 9.0 mph 22.0 mph 53% 0.00 in
00:49 52.1 °F 35.0 °F 29.70 in SSW 11.0 mph 20.0 mph 52% 0.00 in
00:54 52.1 °F 35.5 °F 29.71 in SSW 9.0 mph 21.0 mph 53% 0.00 in
00:59 52.3 °F 35.2 °F 29.71 in SSW 9.0 mph 21.0 mph 52% 0.00 in
01:04 52.4 °F 35.3 °F 29.70 in SSW 11.0 mph 21.0 mph 52% 0.00 in
01:09 52.4 °F 35.3 °F 29.70 in South 8.0 mph 21.0 mph 52% 0.00 in
01:14 52.4 °F 35.3 °F 29.70 in SSW 12.0 mph 20.0 mph 52% 0.00 in
01:19 52.5 °F 35.4 °F 29.70 in SSW 8.0 mph 20.0 mph 52% 0.00 in
01:25 52.4 °F 35.3 °F 29.71 in SSW 12.0 mph 19.0 mph 52% 0.00 in
01:29 52.2 °F 36.5 °F 29.70 in SSW 11.0 mph 21.0 mph 55% 0.00 in
01:34 51.4 °F 37.6 °F 29.70 in SSW 9.0 mph 21.0 mph 59% 0.00 in
01:44 50.4 °F 37.9 °F 29.70 in SSW 6.0 mph 21.0 mph 62% 0.00 in
01:49 50.4 °F 37.5 °F 29.70 in SSW 7.0 mph 21.0 mph 61% 0.00 in
01:54 50.8 °F 37.0 °F 29.70 in SSW 7.0 mph 17.0 mph 59% 0.00 in
01:59 51.4 °F 36.7 °F 29.70 in SSW 10.0 mph 20.0 mph 57% 0.00 in
02:04 51.6 °F 36.9 °F 29.70 in SSW 8.0 mph 20.0 mph 57% 0.00 in
02:09 51.7 °F 36.5 °F 29.70 in SSW 8.0 mph 18.0 mph 56% 0.00 in
02:14 51.9 °F 36.7 °F 29.70 in SSW 9.0 mph 21.0 mph 56% 0.00 in
02:19 52.1 °F 36.4 °F 29.69 in SSW 10.0 mph 22.0 mph 55% 0.00 in
02:24 52.1 °F 36.4 °F 29.69 in SSW 11.0 mph 22.0 mph 55% 0.00 in
02:29 52.1 °F 36.4 °F 29.69 in SSW 10.0 mph 21.0 mph 55% 0.00 in
02:34 51.9 °F 36.7 °F 29.69 in SSW 7.0 mph 20.0 mph 56% 0.00 in
02:39 51.9 °F 36.7 °F 29.69 in SSW 9.0 mph 18.0 mph 56% 0.00 in
02:44 52.0 °F 36.3 °F 29.69 in SSW 9.0 mph 18.0 mph 55% 0.00 in
02:49 52.1 °F 36.9 °F 29.69 in SSW 5.0 mph 18.0 mph 56% 0.00 in
02:54 52.0 °F 36.3 °F 29.69 in SSW 9.0 mph 18.0 mph 55% 0.00 in
02:59 52.3 °F 36.6 °F 29.69 in SSW 8.0 mph 20.0 mph 55% 0.00 in
03:04 52.1 °F 36.9 °F 29.69 in SSW 9.0 mph 21.0 mph 56% 0.00 in
03:09 52.0 °F 36.8 °F 29.68 in SSW 6.0 mph 21.0 mph 56% 0.00 in
03:14 52.1 °F 36.4 °F 29.68 in SSW 8.0 mph 18.0 mph 55% 0.00 in
03:19 52.2 °F 36.5 °F 29.68 in SSW 7.0 mph 18.0 mph 55% 0.00 in
03:24 52.1 °F 36.9 °F 29.69 in SSW 6.0 mph 17.0 mph 56% 0.00 in
03:29 51.9 °F 37.2 °F 29.68 in SSW 6.0 mph 15.0 mph 57% 0.00 in
03:34 51.9 °F 36.7 °F 29.69 in SSW 7.0 mph 17.0 mph 56% 0.00 in
03:39 51.9 °F 36.7 °F 29.69 in SSW 8.0 mph 17.0 mph 56% 0.00 in
03:44 51.5 °F 38.5 °F 29.68 in SSW 7.0 mph 14.0 mph 61% 0.00 in
03:49 50.6 °F 39.3 °F 29.68 in SSW 7.0 mph 15.0 mph 65% 0.00 in
03:54 49.9 °F 39.4 °F 29.68 in SSW 7.0 mph 19.0 mph 67% 0.00 in
03:59 49.4 °F 39.3 °F 29.67 in SSW 7.0 mph 19.0 mph 68% 0.00 in
04:04 49.2 °F 39.1 °F 29.67 in SSW 7.0 mph 18.0 mph 68% 0.00 in
04:09 49.2 °F 38.7 °F 29.67 in SSW 8.0 mph 16.0 mph 67% 0.00 in
04:14 49.5 °F 38.6 °F 29.67 in SSW 8.0 mph 17.0 mph 66% 0.00 in
04:19 49.9 °F 37.8 °F 29.67 in SSW 8.0 mph 17.0 mph 63% 0.00 in
04:24 50.5 °F 38.0 °F 29.67 in SSW 7.0 mph 16.0 mph 62% 0.00 in
04:29 50.8 °F 37.8 °F 29.67 in SSW 9.0 mph 17.0 mph 61% 0.00 in
04:34 50.9 °F 37.9 °F 29.67 in SSW 5.0 mph 17.0 mph 61% 0.00 in
04:39 51.0 °F 37.6 °F 29.67 in South 6.0 mph 13.0 mph 60% 0.00 in
04:44 51.2 °F 37.8 °F 29.67 in SSW 10.0 mph 22.0 mph 60% 0.00 in
04:49 51.4 °F 37.1 °F 29.67 in SSW 8.0 mph 22.0 mph 58% 0.00 in
04:54 51.5 °F 37.2 °F 29.67 in SSW 8.0 mph 18.0 mph 58% 0.00 in
04:59 51.7 °F 37.0 °F 29.67 in South 9.0 mph 16.0 mph 57% 0.00 in
05:04 51.8 °F 37.1 °F 29.67 in SSW 8.0 mph 16.0 mph 57% 0.00 in
05:09 51.9 °F 36.7 °F 29.66 in SSW 9.0 mph 18.0 mph 56% 0.00 in
05:14 52.0 °F 36.3 °F 29.66 in SSW 9.0 mph 18.0 mph 55% 0.00 in
05:19 52.1 °F 36.4 °F 29.66 in SSW 9.0 mph 17.0 mph 55% 0.00 in
05:25 52.1 °F 36.4 °F 29.66 in SSW 11.0 mph 21.0 mph 55% 0.00 in
05:29 52.2 °F 36.5 °F 29.66 in SSW 7.0 mph 21.0 mph 55% 0.00 in
05:34 52.1 °F 36.4 °F 29.66 in SSW 6.0 mph 16.0 mph 55% 0.00 in
05:39 52.2 °F 36.5 °F 29.65 in SSW 9.0 mph 19.0 mph 55% 0.00 in
05:44 52.4 °F 36.2 °F 29.65 in SSW 8.0 mph 19.0 mph 54% 0.00 in
05:49 52.4 °F 36.2 °F 29.65 in South 7.0 mph 16.0 mph 54% 0.00 in
05:54 52.5 °F 36.3 °F 29.66 in SSW 6.0 mph 20.0 mph 54% 0.00 in
05:59 52.4 °F 36.2 °F 29.65 in SSW 8.0 mph 20.0 mph 54% 0.00 in
06:04 52.5 °F 36.3 °F 29.65 in SSW 10.0 mph 20.0 mph 54% 0.00 in
06:09 52.5 °F 36.3 °F 29.65 in SSW 9.0 mph 20.0 mph 54% 0.00 in
06:14 52.6 °F 36.4 °F 29.65 in SSW 9.0 mph 21.0 mph 54% 0.00 in
06:19 52.5 °F 36.3 °F 29.65 in SSW 10.0 mph 21.0 mph 54% 0.00 in
06:24 52.5 °F 36.3 °F 29.65 in SSW 8.0 mph 20.0 mph 54% 0.00 in
06:29 52.5 °F 36.3 °F 29.65 in SSW 11.0 mph 19.0 mph 54% 0.00 in
06:34 52.6 °F 36.4 °F 29.65 in SSW 11.0 mph 21.0 mph 54% 0.00 in
06:39 52.6 °F 36.4 °F 29.65 in SSW 9.0 mph 21.0 mph 54% 0.00 in
06:44 52.5 °F 36.3 °F 29.65 in SSW 9.0 mph 18.0 mph 54% 0.00 in
06:49 52.4 °F 36.2 °F 29.65 in SSW 10.0 mph 19.0 mph 54% 0.00 in
06:54 52.4 °F 36.2 °F 29.65 in South 8.0 mph 21.0 mph 54% 0.00 in
06:59 52.6 °F 36.4 °F 29.65 in SSW 12.0 mph 21.0 mph 54% 0.00 in
07:04 52.5 °F 36.3 °F 29.65 in SSW 12.0 mph 22.0 mph 54% 0.00 in
07:09 52.6 °F 36.4 °F 29.65 in SSW 9.0 mph 22.0 mph 54% 0.00 in
07:14 52.7 °F 36.5 °F 29.65 in SSW 11.0 mph 20.0 mph 54% 0.00 in
07:19 52.9 °F 36.2 °F 29.65 in SSW 12.0 mph 24.0 mph 53% 0.00 in
07:24 53.0 °F 36.8 °F 29.65 in SSW 9.0 mph 24.0 mph 54% 0.00 in
07:29 53.1 °F 36.9 °F 29.64 in SSW 10.0 mph 22.0 mph 54% 0.00 in
07:35 53.2 °F 37.0 °F 29.65 in SSW 8.0 mph 21.0 mph 54% 0.00 in
07:44 53.4 °F 36.7 °F 29.65 in SSW 11.0 mph 21.0 mph 53% 0.00 in
07:49 53.7 °F 37.0 °F 29.65 in SSW 8.0 mph 21.0 mph 53% 0.00 in
07:54 53.8 °F 37.1 °F 29.65 in SSW 9.0 mph 20.0 mph 53% 0.00 in
07:59 54.0 °F 37.3 °F 29.64 in SSW 10.0 mph 22.0 mph 53% 0.00 in
08:04 54.1 °F 37.4 °F 29.65 in SSW 10.0 mph 22.0 mph 53% 0.00 in
08:09 54.1 °F 37.4 °F 29.65 in SSW 8.0 mph 21.0 mph 53% 0.00 in
08:14 54.2 °F 37.4 °F 29.65 in SSW 12.0 mph 21.0 mph 53% 0.00 in
08:19 54.3 °F 37.1 °F 29.65 in SSW 9.0 mph 21.0 mph 52% 0.00 in
08:24 54.5 °F 37.7 °F 29.65 in SSW 10.0 mph 26.0 mph 53% 0.00 in
08:29 54.6 °F 37.3 °F 29.65 in SSW 12.0 mph 26.0 mph 52% 0.00 in
08:34 54.7 °F 37.4 °F 29.65 in SSW 13.0 mph 21.0 mph 52% 0.00 in
08:39 54.8 °F 37.5 °F 29.65 in SSW 9.0 mph 25.0 mph 52% 0.00 in
08:44 54.8 °F 37.5 °F 29.65 in SSW 8.0 mph 25.0 mph 52% 0.00 in
08:49 55.1 °F 37.8 °F 29.65 in SW 10.0 mph 19.0 mph 52% 0.00 in
08:54 55.7 °F 38.4 °F 29.65 in SW 11.0 mph 21.0 mph 52% 0.00 in
08:59 56.2 °F 38.8 °F 29.65 in SSW 10.0 mph 22.0 mph 52% 0.00 in
09:04 56.4 °F 38.5 °F 29.65 in SSW 11.0 mph 28.0 mph 51% 0.00 in
09:09 56.6 °F 38.7 °F 29.65 in SSW 11.0 mph 28.0 mph 51% 0.00 in
09:14 56.7 °F 38.8 °F 29.65 in SW 11.0 mph 25.0 mph 51% 0.00 in
09:19 57.0 °F 39.1 °F 29.64 in SSW 12.0 mph 26.0 mph 51% 0.00 in
09:24 57.2 °F 39.2 °F 29.65 in SSW 11.0 mph 26.0 mph 51% 0.00 in
09:29 57.3 °F 39.3 °F 29.65 in SW 11.0 mph 26.0 mph 51% 0.00 in
09:34 57.3 °F 39.3 °F 29.65 in SSW 10.0 mph 23.0 mph 51% 0.00 in
09:39 57.3 °F 39.8 °F 29.65 in SSW 11.0 mph 23.0 mph 52% 0.00 in
09:44 57.2 °F 39.7 °F 29.65 in SSW 10.0 mph 22.0 mph 52% 0.00 in
09:49 57.0 °F 39.6 °F 29.65 in SSW 9.0 mph 20.0 mph 52% 0.00 in
09:54 56.9 °F 39.5 °F 29.65 in SW 8.0 mph 19.0 mph 52% 0.00 in
09:59 56.7 °F 39.8 °F 29.65 in SSW 10.0 mph 19.0 mph 53% 0.00 in
10:04 56.7 °F 39.8 °F 29.65 in SSW 9.0 mph 23.0 mph 53% 0.00 in
10:09 56.8 °F 39.9 °F 29.65 in SSW 8.0 mph 23.0 mph 53% 0.00 in
10:14 57.2 °F 39.7 °F 29.65 in SW 9.0 mph 18.0 mph 52% 0.00 in
10:19 57.4 °F 39.9 °F 29.65 in SSW 10.0 mph 24.0 mph 52% 0.00 in
10:24 57.4 °F 39.9 °F 29.65 in SW 12.0 mph 24.0 mph 52% 0.00 in
10:30 57.5 °F 40.0 °F 29.66 in SSW 12.0 mph 22.0 mph 52% 0.00 in
10:39 57.6 °F 40.6 °F 29.65 in SSW 6.0 mph 19.0 mph 53% 0.00 in
10:44 57.7 °F 40.7 °F 29.65 in SW 12.0 mph 19.0 mph 53% 0.00 in
10:49 57.8 °F 40.8 °F 29.65 in SSW 11.0 mph 22.0 mph 53% 0.00 in
10:54 58.0 °F 41.0 °F 29.65 in SW 9.0 mph 22.0 mph 53% 0.00 in
10:59 58.2 °F 41.2 °F 29.64 in SSW 13.0 mph 21.0 mph 53% 0.00 in
11:04 58.4 °F 41.3 °F 29.64 in SSW 9.0 mph 21.0 mph 53% 0.00 in
11:09 58.6 °F 41.5 °F 29.64 in SSW 10.0 mph 20.0 mph 53% 0.00 in
11:14 59.0 °F 41.9 °F 29.64 in SSW 8.0 mph 22.0 mph 53% 0.00 in
11:19 59.9 °F 42.2 °F 29.64 in SW 12.0 mph 27.0 mph 52% 0.00 in
11:24 61.0 °F 42.8 °F 29.63 in SSW 10.0 mph 27.0 mph 51% 0.00 in
11:29 61.8 °F 43.0 °F 29.64 in SSW 10.0 mph 23.0 mph 50% 0.00 in
11:34 62.1 °F 43.3 °F 29.64 in SSW 9.0 mph 23.0 mph 50% 0.00 in
11:39 62.2 °F 42.8 °F 29.64 in SSW 11.0 mph 22.0 mph 49% 0.00 in
11:44 60.9 °F 41.6 °F 29.64 in SSW 15.0 mph 26.0 mph 49% 0.00 in
11:49 61.2 °F 42.9 °F 29.64 in SW 11.0 mph 26.0 mph 51% 0.00 in
11:54 61.8 °F 43.0 °F 29.64 in SSW 8.0 mph 23.0 mph 50% 0.00 in
11:59 62.2 °F 42.8 °F 29.64 in SSW 12.0 mph 22.0 mph 49% 0.00 in
12:04 61.4 °F 43.1 °F 29.63 in SW 11.0 mph 23.0 mph 51% 0.00 in
12:09 61.0 °F 42.8 °F 29.63 in SSW 11.0 mph 23.0 mph 51% 0.00 in
12:14 61.0 °F 43.3 °F 29.64 in SSW 10.0 mph 19.0 mph 52% 0.00 in
12:19 61.2 °F 42.9 °F 29.63 in SSW 12.0 mph 23.0 mph 51% 0.00 in
12:24 60.8 °F 43.1 °F 29.63 in SW 13.0 mph 23.0 mph 52% 0.00 in
12:29 60.6 °F 42.9 °F 29.64 in SW 11.0 mph 22.0 mph 52% 0.00 in
12:34 60.3 °F 43.1 °F 29.63 in SW 8.0 mph 20.0 mph 53% 0.00 in
12:39 59.9 °F 42.7 °F 29.63 in SSW 10.0 mph 22.0 mph 53% 0.00 in
12:44 59.8 °F 42.6 °F 29.63 in SSW 11.0 mph 22.0 mph 53% 0.00 in
12:49 59.6 °F 42.9 °F 29.64 in SSW 13.0 mph 23.0 mph 54% 0.00 in
12:54 59.3 °F 42.7 °F 29.64 in SSW 13.0 mph 23.0 mph 54% 0.00 in
12:59 59.0 °F 42.4 °F 29.64 in SW 13.0 mph 24.0 mph 54% 0.00 in
13:04 59.1 °F 43.0 °F 29.64 in SSW 8.0 mph 24.0 mph 55% 0.00 in
13:09 59.2 °F 43.1 °F 29.64 in SSW 8.0 mph 21.0 mph 55% 0.00 in
13:14 59.1 °F 43.0 °F 29.64 in SSW 9.0 mph 25.0 mph 55% 0.00 in
13:19 59.2 °F 43.1 °F 29.64 in SSW 10.0 mph 25.0 mph 55% 0.00 in
13:24 59.1 °F 43.0 °F 29.64 in SSW 9.0 mph 21.0 mph 55% 0.00 in
13:29 59.0 °F 42.9 °F 29.64 in SSW 12.0 mph 21.0 mph 55% 0.00 in
13:34 59.0 °F 42.9 °F 29.64 in SSW 7.0 mph 21.0 mph 55% 0.00 in
13:39 59.0 °F 43.3 °F 29.64 in SSW 8.0 mph 17.0 mph 56% 0.00 in
13:44 59.0 °F 43.3 °F 29.64 in SW 8.0 mph 16.0 mph 56% 0.00 in
13:49 58.9 °F 43.2 °F 29.64 in SSW 8.0 mph 19.0 mph 56% 0.00 in
13:54 58.8 °F 43.2 °F 29.64 in SSW 7.0 mph 19.0 mph 56% 0.00 in
13:59 58.6 °F 43.0 °F 29.63 in SSW 8.0 mph 18.0 mph 56% 0.00 in
14:04 58.5 °F 42.9 °F 29.63 in SSW 7.0 mph 18.0 mph 56% 0.00 in
14:09 58.4 °F 43.2 °F 29.63 in SSW 9.0 mph 18.0 mph 57% 0.00 in
14:14 58.2 °F 43.1 °F 29.64 in SSW 9.0 mph 17.0 mph 57% 0.00 in
14:19 58.1 °F 43.0 °F 29.63 in SSW 8.0 mph 18.0 mph 57% 0.00 in
14:24 58.0 °F 43.3 °F 29.63 in SSW 8.0 mph 18.0 mph 58% 0.00 in
14:29 58.0 °F 43.3 °F 29.62 in SSW 10.0 mph 18.0 mph 58% 0.00 in
14:34 57.9 °F 43.2 °F 29.63 in SSW 7.0 mph 18.0 mph 58% 0.00 in
14:39 57.9 °F 43.2 °F 29.63 in SSW 8.0 mph 15.0 mph 58% 0.00 in
14:44 57.8 °F 43.1 °F 29.63 in SSW 6.0 mph 13.0 mph 58% 0.00 in
14:49 57.8 °F 43.6 °F 29.63 in SW 4.0 mph 13.0 mph 59% 0.00 in
14:54 57.7 °F 43.5 °F 29.63 in SSW 6.0 mph 13.0 mph 59% 0.00 in
14:59 57.6 °F 43.4 °F 29.63 in SSW 6.0 mph 13.0 mph 59% 0.00 in
15:04 57.5 °F 43.3 °F 29.63 in SSW 6.0 mph 12.0 mph 59% 0.00 in
15:09 57.4 °F 43.6 °F 29.63 in SSW 7.0 mph 15.0 mph 60% 0.00 in
15:14 57.4 °F 43.6 °F 29.63 in SW 7.0 mph 15.0 mph 60% 0.00 in
15:19 57.4 °F 43.6 °F 29.62 in SSW 3.0 mph 17.0 mph 60% 0.00 in
15:24 57.3 °F 43.5 °F 29.62 in SSW 5.0 mph 17.0 mph 60% 0.00 in
15:29 57.3 °F 43.5 °F 29.62 in SSW 5.0 mph 13.0 mph 60% 0.00 in
15:34 57.2 °F 43.5 °F 29.63 in SSW 5.0 mph 13.0 mph 60% 0.00 in
15:39 57.1 °F 43.8 °F 29.63 in SSW 7.0 mph 13.0 mph 61% 0.00 in
15:44 57.0 °F 43.7 °F 29.63 in SSW 6.0 mph 13.0 mph 61% 0.00 in
15:49 56.9 °F 43.6 °F 29.63 in SW 9.0 mph 14.0 mph 61% 0.00 in
15:54 56.9 °F 43.6 °F 29.63 in SSW 7.0 mph 16.0 mph 61% 0.00 in
15:59 56.8 °F 43.5 °F 29.63 in SSW 6.0 mph 16.0 mph 61% 0.00 in
16:04 56.6 °F 43.7 °F 29.62 in SSW 7.0 mph 16.0 mph 62% 0.00 in
16:09 56.5 °F 43.6 °F 29.62 in SSW 7.0 mph 16.0 mph 62% 0.00 in
16:14 56.4 °F 43.6 °F 29.62 in SSW 6.0 mph 13.0 mph 62% 0.00 in
16:19 56.2 °F 43.8 °F 29.63 in SSW 6.0 mph 13.0 mph 63% 0.00 in
16:24 56.0 °F 43.6 °F 29.63 in SSW 5.0 mph 10.0 mph 63% 0.00 in
16:29 55.9 °F 43.9 °F 29.63 in SSW 7.0 mph 12.0 mph 64% 0.00 in
16:34 55.8 °F 43.8 °F 29.63 in SSW 6.0 mph 12.0 mph 64% 0.00 in
16:39 55.8 °F 43.8 °F 29.63 in SSW 3.0 mph 12.0 mph 64% 0.00 in
16:44 55.7 °F 43.7 °F 29.63 in SSW 7.0 mph 12.0 mph 64% 0.00 in
16:49 55.6 °F 43.6 °F 29.63 in SSW 5.0 mph 13.0 mph 64% 0.00 in
16:54 55.9 °F 43.9 °F 29.63 in SSW 4.0 mph 14.0 mph 64% 0.00 in
16:59 55.9 °F 43.9 °F 29.62 in SSW 7.0 mph 14.0 mph 64% 0.00 in
17:04 55.9 °F 43.9 °F 29.62 in SSW 4.0 mph 14.0 mph 64% 0.00 in
17:09 55.9 °F 43.9 °F 29.62 in SSW 9.0 mph 16.0 mph 64% 0.00 in
17:14 55.9 °F 43.9 °F 29.62 in SSW 6.0 mph 16.0 mph 64% 0.00 in
17:19 55.8 °F 44.2 °F 29.62 in SSW 5.0 mph 14.0 mph 65% 0.00 in
17:24 55.6 °F 44.0 °F 29.62 in SSW 4.0 mph 10.0 mph 65% 0.00 in
17:29 55.4 °F 43.8 °F 29.62 in SSW 4.0 mph 9.0 mph 65% 0.00 in
17:34 55.3 °F 44.1 °F 29.62 in SSW 6.0 mph 13.0 mph 66% 0.00 in
17:39 55.4 °F 44.2 °F 29.62 in SSW 5.0 mph 13.0 mph 66% 0.00 in
17:44 55.4 °F 44.2 °F 29.61 in SSW 3.0 mph 12.0 mph 66% 0.00 in
17:49 55.5 °F 44.3 °F 29.61 in SSW 6.0 mph 10.0 mph 66% 0.00 in
17:54 55.5 °F 44.3 °F 29.61 in SSW 5.0 mph 12.0 mph 66% 0.00 in
17:59 55.7 °F 44.5 °F 29.61 in SSW 6.0 mph 14.0 mph 66% 0.00 in
18:04 55.7 °F 44.5 °F 29.61 in SSW 3.0 mph 14.0 mph 66% 0.00 in
18:09 55.7 °F 44.5 °F 29.61 in SSW 6.0 mph 12.0 mph 66% 0.00 in
18:14 55.7 °F 44.9 °F 29.61 in SSW 4.0 mph 11.0 mph 67% 0.00 in
18:19 55.7 °F 44.9 °F 29.61 in SSW 5.0 mph 11.0 mph 67% 0.00 in
18:24 55.8 °F 45.0 °F 29.60 in SSW 5.0 mph 12.0 mph 67% 0.00 in
18:29 55.8 °F 45.0 °F 29.60 in SSW 6.0 mph 15.0 mph 67% 0.00 in
18:34 55.9 °F 45.1 °F 29.60 in SSW 6.0 mph 15.0 mph 67% 0.00 in
18:39 55.9 °F 45.5 °F 29.60 in SSW 7.0 mph 15.0 mph 68% 0.00 in
18:44 55.9 °F 45.5 °F 29.60 in SSW 6.0 mph 17.0 mph 68% 0.00 in
18:49 56.0 °F 45.6 °F 29.59 in SSW 6.0 mph 17.0 mph 68% 0.00 in
18:54 56.0 °F 45.6 °F 29.60 in SSW 9.0 mph 18.0 mph 68% 0.00 in
18:59 56.0 °F 45.6 °F 29.60 in SSW 9.0 mph 18.0 mph 68% 0.00 in
19:04 56.1 °F 45.7 °F 29.60 in SSW 8.0 mph 15.0 mph 68% 0.00 in
19:09 56.2 °F 45.8 °F 29.60 in SSW 8.0 mph 15.0 mph 68% 0.00 in
19:14 56.2 °F 45.8 °F 29.60 in SSW 8.0 mph 16.0 mph 68% 0.00 in
19:19 56.3 °F 46.3 °F 29.59 in SSW 7.0 mph 19.0 mph 69% 0.00 in
19:24 56.3 °F 46.3 °F 29.59 in SSW 4.0 mph 19.0 mph 69% 0.00 in
19:29 56.3 °F 46.3 °F 29.59 in SSW 9.0 mph 17.0 mph 69% 0.00 in
19:34 56.3 °F 46.3 °F 29.59 in SW 8.0 mph 18.0 mph 69% 0.00 in
19:39 56.4 °F 46.7 °F 29.59 in SSW 6.0 mph 18.0 mph 70% 0.00 in
19:44 56.3 °F 46.7 °F 29.59 in SSW 3.0 mph 15.0 mph 70% 0.00 in
19:49 56.3 °F 47.0 °F 29.60 in SW 6.0 mph 15.0 mph 71% 0.00 in
19:54 56.3 °F 47.0 °F 29.59 in SSW 7.0 mph 15.0 mph 71% 0.00 in
19:59 56.4 °F 47.1 °F 29.59 in SW 5.0 mph 13.0 mph 71% 0.00 in
20:04 56.4 °F 47.5 °F 29.60 in SSW 4.0 mph 14.0 mph 72% 0.00 in
20:09 56.4 °F 47.9 °F 29.60 in SSW 8.0 mph 17.0 mph 73% 0.00 in
20:14 56.1 °F 47.9 °F 29.59 in SSW 7.0 mph 17.0 mph 74% 0.00 in
20:19 55.7 °F 48.3 °F 29.59 in SSW 9.0 mph 17.0 mph 76% 0.00 in
20:24 55.3 °F 48.2 °F 29.59 in SSW 7.0 mph 17.0 mph 77% 0.01 in
20:29 55.1 °F 48.7 °F 29.59 in SSW 7.0 mph 15.0 mph 79% 0.01 in
20:34 54.7 °F 48.7 °F 29.58 in SSW 6.0 mph 18.0 mph 80% 0.01 in
20:39 54.4 °F 48.7 °F 29.58 in SSW 7.0 mph 18.0 mph 81% 0.02 in
20:44 54.2 °F 48.8 °F 29.58 in SSW 9.0 mph 16.0 mph 82% 0.02 in
20:49 54.0 °F 49.0 °F 29.58 in SSW 4.0 mph 16.0 mph 83% 0.02 in
20:54 53.9 °F 48.9 °F 29.59 in SSW 10.0 mph 18.0 mph 83% 0.02 in
20:59 53.8 °F 49.1 °F 29.59 in SSW 9.0 mph 18.0 mph 84% 0.03 in
21:04 53.6 °F 48.9 °F 29.59 in SW 8.0 mph 17.0 mph 84% 0.03 in
21:09 53.4 °F 49.0 °F 29.60 in SSW 9.0 mph 16.0 mph 85% 0.04 in
21:14 53.2 °F 49.1 °F 29.60 in SSW 10.0 mph 20.0 mph 86% 0.05 in
21:19 53.0 °F 48.9 °F 29.59 in SSW 9.0 mph 20.0 mph 86% 0.06 in
21:24 52.8 °F 49.0 °F 29.59 in SSW 8.0 mph 17.0 mph 87% 0.08 in
21:29 52.6 °F 48.8 °F 29.59 in SSW 6.0 mph 14.0 mph 87% 0.09 in
21:34 52.5 °F 49.1 °F 29.58 in SSW 7.0 mph 15.0 mph 88% 0.10 in
21:39 52.3 °F 48.9 °F 29.58 in SSW 6.0 mph 15.0 mph 88% 0.11 in
21:44 52.2 °F 49.1 °F 29.56 in SSW 7.0 mph 15.0 mph 89% 0.12 in
21:49 52.2 °F 49.1 °F 29.57 in SSW 5.0 mph 15.0 mph 89% 0.12 in
21:54 52.1 °F 49.0 °F 29.56 in SSW 6.0 mph 11.0 mph 89% 0.12 in
21:59 52.1 °F 49.3 °F 29.56 in SSW 6.0 mph 16.0 mph 90% 0.12 in
22:04 52.2 °F 49.4 °F 29.58 in SW 4.0 mph 16.0 mph 90% 0.12 in
22:09 52.2 °F 49.4 °F 29.57 in SSW 2.0 mph 11.0 mph 90% 0.12 in
22:14 52.2 °F 49.4 °F 29.56 in SSW 5.0 mph 9.0 mph 90% 0.12 in
22:19 52.2 °F 49.7 °F 29.56 in SSW 4.0 mph 13.0 mph 91% 0.12 in
22:24 52.3 °F 49.8 °F 29.55 in SSW 6.0 mph 13.0 mph 91% 0.12 in
22:29 52.4 °F 49.9 °F 29.51 in South 8.0 mph 18.0 mph 91% 0.12 in
22:34 52.5 °F 50.0 °F 29.50 in South 7.0 mph 18.0 mph 91% 0.12 in
22:39 52.6 °F 50.0 °F 29.51 in SW 4.0 mph 15.0 mph 91% 0.12 in
22:44 52.7 °F 50.1 °F 29.52 in SSW 7.0 mph 14.0 mph 91% 0.12 in
22:49 53.0 °F 50.4 °F 29.52 in SSW 7.0 mph 14.0 mph 91% 0.12 in
22:54 53.2 °F 50.6 °F 29.52 in SSW 8.0 mph 15.0 mph 91% 0.12 in
22:59 53.3 °F 50.7 °F 29.53 in SSW 9.0 mph 19.0 mph 91% 0.12 in
23:04 53.5 °F 50.6 °F 29.52 in SSW 5.0 mph 19.0 mph 90% 0.12 in
23:09 53.5 °F 50.6 °F 29.51 in SW 5.0 mph 13.0 mph 90% 0.12 in
23:14 53.5 °F 50.6 °F 29.51 in SSW 7.0 mph 15.0 mph 90% 0.12 in
23:19 53.5 °F 50.6 °F 29.51 in SSW 6.0 mph 15.0 mph 90% 0.12 in
23:24 53.6 °F 50.7 °F 29.51 in SSW 8.0 mph 14.0 mph 90% 0.12 in
23:29 53.6 °F 50.7 °F 29.53 in SW 5.0 mph 14.0 mph 90% 0.12 in
23:34 53.7 °F 50.8 °F 29.53 in SW 6.0 mph 12.0 mph 90% 0.12 in
23:39 53.7 °F 50.8 °F 29.52 in SSW 11.0 mph 18.0 mph 90% 0.12 in
23:44 53.8 °F 50.9 °F 29.51 in SW 8.0 mph 18.0 mph 90% 0.12 in
23:49 53.8 °F 50.9 °F 29.50 in SSW 5.0 mph 16.0 mph 90% 0.12 in
23:54 53.8 °F 50.9 °F 29.50 in SSW 9.0 mph 15.0 mph 90% 0.12 in
23:59 53.8 °F 50.9 °F 29.49 in SSW 5.0 mph 18.0 mph 90% 0.12 in
Westford Weather
Compliments of Weather Underground

 
 
Current Radar Loop:

Copyright © WestfordWeather.net 2007-2014. All rights reserved.